createdAt,value
2017-09-14T00:00:49.400Z,17.24
2017-09-14T00:01:49.099Z,17.26
2017-09-14T00:02:49.765Z,17.26
2017-09-14T00:03:55.431Z,17.23
2017-09-14T00:04:49.484Z,17.26
2017-09-14T00:05:49.504Z,17.2
2017-09-14T00:06:49.525Z,17.2
2017-09-14T00:07:49.228Z,17.2
2017-09-14T00:08:49.241Z,17.15
2017-09-14T00:09:49.910Z,17.2
2017-09-14T00:10:49.607Z,17.14
2017-09-14T00:11:49.951Z,17.23
2017-09-14T00:12:49.645Z,17.16
2017-09-14T00:13:49.340Z,17.2
2017-09-14T00:14:50.014Z,17.2
2017-09-14T00:15:49.710Z,17.15
2017-09-14T00:16:49.405Z,17.09
2017-09-14T00:17:49.757Z,17.09
2017-09-14T00:18:50.094Z,17.12
2017-09-14T00:19:50.117Z,17.06
2017-09-14T00:20:49.808Z,17.09
2017-09-14T00:21:49.831Z,17.14
2017-09-14T00:22:49.852Z,17.11
2017-09-14T00:23:49.549Z,17.12
2017-09-14T00:24:49.890Z,17.12
2017-09-14T00:25:49.912Z,17.08
2017-09-14T00:26:49.935Z,17.08
2017-09-14T00:27:50.276Z,17.02
2017-09-14T00:28:49.991Z,17.09
2017-09-14T00:29:50.318Z,17.08
2017-09-14T00:30:49.688Z,17.09
2017-09-14T00:31:50.359Z,17.05
2017-09-14T00:32:49.732Z,17.05
2017-09-14T00:33:50.076Z,17.05
2017-09-14T00:34:50.421Z,17.04
2017-09-14T00:35:50.120Z,16.97
2017-09-14T00:36:49.812Z,17.06
2017-09-14T00:37:50.160Z,16.97
2017-09-14T00:38:50.499Z,17.02
2017-09-14T00:39:50.199Z,17.09
2017-09-14T00:40:50.548Z,17.04
2017-09-14T00:41:49.915Z,16.96
2017-09-14T00:42:49.935Z,16.94
2017-09-14T00:43:50.608Z,17.09
2017-09-14T00:44:50.625Z,17.04
2017-09-14T00:45:50.647Z,17.02
2017-09-14T00:46:50.341Z,17.01
2017-09-14T00:47:50.685Z,16.99
2017-09-14T00:48:50.705Z,17.02
2017-09-14T00:49:50.399Z,17.02
2017-09-14T00:50:50.098Z,17.01
2017-09-14T00:51:50.118Z,16.97
2017-09-14T00:52:50.475Z,16.99
2017-09-14T00:53:50.481Z,17.05
2017-09-14T00:54:50.829Z,16.94
2017-09-14T00:55:50.524Z,16.99
2017-09-14T00:56:50.547Z,17.01
2017-09-14T00:57:50.563Z,16.89
2017-09-14T00:58:50.911Z,16.91
2017-09-14T00:59:50.603Z,16.91
2017-09-14T01:00:50.629Z,16.89
2017-09-14T01:01:50.644Z,16.91
2017-09-14T01:02:50.670Z,16.86
2017-09-14T01:03:51.262Z,16.91
2017-09-14T01:04:50.709Z,16.89
2017-09-14T01:05:51.049Z,16.81
2017-09-14T01:06:50.759Z,16.91
2017-09-14T01:07:51.092Z,16.79
2017-09-14T01:08:50.789Z,16.81
2017-09-14T01:09:50.809Z,16.81
2017-09-14T01:10:50.826Z,16.79
2017-09-14T01:11:50.925Z,16.79
2017-09-14T01:12:51.190Z,16.75
2017-09-14T01:13:50.563Z,16.84
2017-09-14T01:14:51.230Z,16.79
2017-09-14T01:15:51.252Z,16.89
2017-09-14T01:16:50.945Z,16.78
2017-09-14T01:17:50.969Z,16.76
2017-09-14T01:18:50.995Z,16.76
2017-09-14T01:19:51.009Z,16.78
2017-09-14T01:20:51.024Z,16.74
2017-09-14T01:21:50.750Z,16.75
2017-09-14T01:22:51.390Z,16.74
2017-09-14T01:23:50.765Z,16.78
2017-09-14T01:24:50.786Z,16.69
2017-09-14T01:25:51.450Z,16.66
2017-09-14T01:26:51.516Z,16.61
2017-09-14T01:27:51.172Z,16.65
2017-09-14T01:28:51.219Z,16.61
2017-09-14T01:29:51.211Z,16.69
2017-09-14T01:30:51.234Z,16.71
2017-09-14T01:31:51.571Z,16.64
2017-09-14T01:32:50.949Z,16.69
2017-09-14T01:33:51.609Z,16.66
2017-09-14T01:34:51.631Z,16.64
2017-09-14T01:35:51.651Z,16.6
2017-09-14T01:36:51.682Z,16.65
2017-09-14T01:37:51.692Z,16.58
2017-09-14T01:38:51.064Z,16.64
2017-09-14T01:39:51.734Z,16.61
2017-09-14T01:40:51.109Z,16.53
2017-09-14T01:41:51.450Z,16.58
2017-09-14T01:42:51.794Z,16.58
2017-09-14T01:43:51.491Z,16.54
2017-09-14T01:44:51.509Z,16.6
2017-09-14T01:45:51.856Z,16.51
2017-09-14T01:46:51.874Z,16.58
2017-09-14T01:47:51.248Z,16.58
2017-09-14T01:48:51.268Z,16.56
2017-09-14T01:49:51.610Z,16.51
2017-09-14T01:50:51.958Z,16.5
2017-09-14T01:51:51.325Z,16.5
2017-09-14T01:52:51.674Z,16.5
2017-09-14T01:53:51.904Z,16.54
2017-09-14T01:54:51.387Z,16.46
2017-09-14T01:55:51.729Z,16.54
2017-09-14T01:56:51.751Z,16.53
2017-09-14T01:57:52.094Z,16.46
2017-09-14T01:58:51.795Z,16.54
2017-09-14T01:59:51.810Z,16.41
2017-09-14T02:00:51.832Z,16.51
2017-09-14T02:01:52.178Z,16.43
2017-09-14T02:02:51.869Z,16.43
2017-09-14T02:03:52.214Z,16.5
2017-09-14T02:04:51.934Z,16.49
2017-09-14T02:05:52.132Z,16.42
2017-09-14T02:06:51.973Z,16.42
2017-09-14T02:07:51.975Z,16.49
2017-09-14T02:08:51.671Z,16.35
2017-09-14T02:09:51.688Z,16.35
2017-09-14T02:10:52.036Z,16.42
2017-09-14T02:11:52.050Z,16.41
2017-09-14T02:12:52.400Z,16.42
2017-09-14T02:13:52.093Z,16.38
2017-09-14T02:14:51.791Z,16.47
2017-09-14T02:15:52.659Z,16.36
2017-09-14T02:16:52.476Z,16.42
2017-09-14T02:17:51.844Z,16.41
2017-09-14T02:18:52.189Z,16.42
2017-09-14T02:19:51.895Z,16.35
2017-09-14T02:20:52.557Z,16.36
2017-09-14T02:21:52.248Z,16.36
2017-09-14T02:22:52.596Z,16.39
2017-09-14T02:23:52.300Z,16.33
2017-09-14T02:24:52.314Z,16.39
2017-09-14T02:25:52.005Z,16.33
2017-09-14T02:26:52.350Z,16.23
2017-09-14T02:27:52.370Z,16.38
2017-09-14T02:28:52.712Z,16.33
2017-09-14T02:29:52.731Z,16.2
2017-09-14T02:30:52.753Z,16.31
2017-09-14T02:31:52.778Z,16.28
2017-09-14T02:32:52.791Z,16.28
2017-09-14T02:33:52.823Z,16.31
2017-09-14T02:34:52.183Z,16.23
2017-09-14T02:35:52.543Z,16.23
2017-09-14T02:36:52.877Z,16.23
2017-09-14T02:37:52.889Z,16.29
2017-09-14T02:38:52.909Z,16.21
2017-09-14T02:39:52.940Z,16.26
2017-09-14T02:40:52.952Z,16.29
2017-09-14T02:41:53.002Z,16.29
2017-09-14T02:42:52.993Z,16.23
2017-09-14T02:43:52.696Z,16.26
2017-09-14T02:44:52.708Z,16.23
2017-09-14T02:45:53.058Z,16.24
2017-09-14T02:46:52.421Z,16.29
2017-09-14T02:47:53.089Z,16.26
2017-09-14T02:48:53.109Z,16.26
2017-09-14T02:49:52.809Z,16.2
2017-09-14T02:50:53.160Z,16.26
2017-09-14T02:51:53.168Z,16.24
2017-09-14T02:52:52.866Z,16.17
2017-09-14T02:53:53.212Z,16.2
2017-09-14T02:54:52.905Z,16.2
2017-09-14T02:55:53.252Z,16.2
2017-09-14T02:56:52.942Z,16.21
2017-09-14T02:57:53.290Z,16.21
2017-09-14T02:58:52.983Z,16.21
2017-09-14T02:59:53.331Z,16.13
2017-09-14T03:00:53.349Z,16.17
2017-09-14T03:01:53.044Z,16.15
2017-09-14T03:02:53.055Z,16.16
2017-09-14T03:03:53.075Z,16.17
2017-09-14T03:04:53.470Z,16.15
2017-09-14T03:05:53.444Z,16.15
2017-09-14T03:06:52.812Z,16.13
2017-09-14T03:07:53.152Z,16.15
2017-09-14T03:08:52.851Z,16.13
2017-09-14T03:09:53.325Z,16.1
2017-09-14T03:10:53.539Z,16.12
2017-09-14T03:11:53.242Z,16.15
2017-09-14T03:12:52.929Z,16.13
2017-09-14T03:13:53.597Z,16.12
2017-09-14T03:14:53.622Z,16.13
2017-09-14T03:15:53.635Z,16.15
2017-09-14T03:16:53.428Z,16.05
2017-09-14T03:17:54.007Z,16.12
2017-09-14T03:18:53.696Z,16.12
2017-09-14T03:19:53.712Z,16.15
2017-09-14T03:20:53.410Z,16.1
2017-09-14T03:21:53.106Z,16.13
2017-09-14T03:22:53.772Z,16.12
2017-09-14T03:23:53.465Z,16.15
2017-09-14T03:24:53.899Z,16.12
2017-09-14T03:25:53.922Z,16.12
2017-09-14T03:26:53.527Z,16.15
2017-09-14T03:27:53.882Z,16.09
2017-09-14T03:28:53.572Z,16.08
2017-09-14T03:29:53.590Z,16.1
2017-09-14T03:30:53.606Z,16.1
2017-09-14T03:31:53.628Z,16.08
2017-09-14T03:32:53.645Z,16.04
2017-09-14T03:33:53.670Z,16.1
2017-09-14T03:34:53.502Z,16.04
2017-09-14T03:35:53.706Z,16.05
2017-09-14T03:36:53.724Z,16
2017-09-14T03:37:53.862Z,15.98
2017-09-14T03:38:53.868Z,16.04
2017-09-14T03:39:53.885Z,16.02
2017-09-14T03:40:54.184Z,16.1
2017-09-14T03:41:54.190Z,16.02
2017-09-14T03:42:53.521Z,16.1
2017-09-14T03:43:54.284Z,15.98
2017-09-14T03:44:53.890Z,16
2017-09-14T03:45:54.226Z,15.97
2017-09-14T03:46:54.251Z,15.98
2017-09-14T03:47:54.287Z,15.97
2017-09-14T03:48:54.045Z,16.02
2017-09-14T03:49:54.303Z,15.97
2017-09-14T03:50:54.053Z,15.91
2017-09-14T03:51:54.343Z,15.97
2017-09-14T03:52:54.050Z,15.98
2017-09-14T03:53:54.380Z,16.08
2017-09-14T03:54:54.399Z,15.95
2017-09-14T03:55:54.170Z,16.01
2017-09-14T03:56:54.196Z,15.97
2017-09-14T03:57:54.459Z,16
2017-09-14T03:58:54.484Z,16
2017-09-14T03:59:53.954Z,15.98
2017-09-14T04:00:54.532Z,16.01
2017-09-14T04:01:54.216Z,16
2017-09-14T04:02:54.237Z,15.98
2017-09-14T04:03:54.257Z,16
2017-09-14T04:04:54.271Z,15.97
2017-09-14T04:05:54.617Z,15.98
2017-09-14T04:06:54.317Z,16
2017-09-14T04:07:54.334Z,15.91
2017-09-14T04:08:54.357Z,15.91
2017-09-14T04:09:54.101Z,15.92
2017-09-14T04:10:54.722Z,15.95
2017-09-14T04:11:54.098Z,15.97
2017-09-14T04:12:54.110Z,16
2017-09-14T04:13:54.130Z,15.95
2017-09-14T04:14:54.793Z,15.92
2017-09-14T04:15:54.489Z,15.91
2017-09-14T04:16:54.516Z,15.88
2017-09-14T04:17:54.857Z,15.91
2017-09-14T04:18:54.871Z,15.86
2017-09-14T04:19:54.570Z,15.9
2017-09-14T04:20:54.588Z,15.92
2017-09-14T04:21:54.691Z,15.91
2017-09-14T04:22:54.634Z,15.95
2017-09-14T04:23:54.645Z,15.91
2017-09-14T04:24:54.346Z,15.91
2017-09-14T04:25:54.689Z,15.88
2017-09-14T04:26:55.029Z,15.88
2017-09-14T04:27:54.404Z,15.91
2017-09-14T04:28:55.070Z,15.95
2017-09-14T04:29:54.441Z,15.86
2017-09-14T04:30:55.111Z,15.94
2017-09-14T04:31:54.485Z,15.9
2017-09-14T04:32:55.150Z,15.79
2017-09-14T04:33:54.519Z,15.86
2017-09-14T04:34:54.862Z,15.79
2017-09-14T04:35:54.889Z,15.77
2017-09-14T04:36:54.902Z,15.76
2017-09-14T04:37:54.925Z,15.77
2017-09-14T04:38:55.266Z,15.9
2017-09-14T04:39:55.290Z,15.82
2017-09-14T04:40:54.978Z,15.79
2017-09-14T04:41:55.319Z,15.82
2017-09-14T04:42:55.339Z,15.82
2017-09-14T04:43:55.366Z,15.82
2017-09-14T04:44:54.736Z,15.79
2017-09-14T04:45:55.398Z,15.77
2017-09-14T04:46:55.097Z,15.76
2017-09-14T04:47:54.793Z,15.84
2017-09-14T04:48:55.694Z,15.83
2017-09-14T04:49:55.155Z,15.79
2017-09-14T04:50:54.852Z,15.73
2017-09-14T04:51:55.189Z,15.75
2017-09-14T04:52:55.541Z,15.84
2017-09-14T04:53:55.556Z,15.77
2017-09-14T04:54:54.933Z,15.76
2017-09-14T04:55:55.596Z,15.68
2017-09-14T04:56:55.299Z,15.73
2017-09-14T04:57:55.631Z,15.8
2017-09-14T04:58:55.659Z,15.76
2017-09-14T04:59:55.349Z,15.75
2017-09-14T05:00:55.367Z,15.76
2017-09-14T05:01:55.389Z,15.68
2017-09-14T05:02:55.734Z,15.72
2017-09-14T05:03:55.439Z,15.75
2017-09-14T05:04:55.329Z,15.68
2017-09-14T05:05:55.879Z,15.76
2017-09-14T05:06:55.484Z,15.76
2017-09-14T05:07:55.508Z,15.73
2017-09-14T05:08:55.206Z,15.72
2017-09-14T05:09:55.903Z,15.68
2017-09-14T05:10:55.889Z,15.73
2017-09-14T05:11:55.973Z,15.65
2017-09-14T05:12:55.602Z,15.72
2017-09-14T05:13:55.628Z,15.67
2017-09-14T05:14:55.321Z,15.64
2017-09-14T05:15:55.784Z,15.61
2017-09-14T05:16:55.357Z,15.68
2017-09-14T05:17:55.787Z,15.67
2017-09-14T05:18:56.266Z,15.64
2017-09-14T05:19:56.261Z,15.61
2017-09-14T05:20:55.433Z,15.7
2017-09-14T05:21:56.267Z,15.68
2017-09-14T05:22:55.946Z,15.67
2017-09-14T05:23:55.967Z,15.73
2017-09-14T05:24:55.948Z,15.72
2017-09-14T05:25:56.269Z,15.64
2017-09-14T05:26:56.071Z,15.72
2017-09-14T05:27:56.111Z,15.68
2017-09-14T05:28:56.106Z,15.68
2017-09-14T05:29:55.989Z,15.7
2017-09-14T05:30:55.951Z,15.65
2017-09-14T05:31:56.424Z,15.64
2017-09-14T05:32:56.433Z,15.65
2017-09-14T05:33:56.135Z,15.72
2017-09-14T05:34:56.428Z,15.64
2017-09-14T05:35:56.049Z,15.64
2017-09-14T05:36:56.391Z,15.68
2017-09-14T05:37:56.410Z,15.72
2017-09-14T05:38:56.109Z,15.68
2017-09-14T05:39:56.448Z,15.75
2017-09-14T05:40:56.144Z,15.76
2017-09-14T05:41:56.484Z,15.62
2017-09-14T05:42:56.187Z,15.67
2017-09-14T05:43:55.885Z,15.65
2017-09-14T05:44:56.545Z,15.62
2017-09-14T05:45:56.388Z,15.68
2017-09-14T05:46:56.265Z,15.67
2017-09-14T05:47:56.280Z,15.64
2017-09-14T05:48:55.978Z,15.72
2017-09-14T05:49:55.998Z,15.7
2017-09-14T05:50:56.338Z,15.68
2017-09-14T05:51:56.363Z,15.7
2017-09-14T05:52:56.700Z,15.65
2017-09-14T05:53:56.402Z,15.67
2017-09-14T05:54:56.418Z,15.67
2017-09-14T05:55:56.112Z,15.72
2017-09-14T05:56:56.780Z,15.65
2017-09-14T05:57:56.797Z,15.7
2017-09-14T05:58:56.575Z,15.67
2017-09-14T05:59:56.513Z,15.68
2017-09-14T06:00:56.535Z,15.67
2017-09-14T06:01:56.552Z,15.68
2017-09-14T06:02:56.898Z,15.62
2017-09-14T06:03:56.269Z,15.68
2017-09-14T06:04:56.933Z,15.65
2017-09-14T06:05:56.634Z,15.72
2017-09-14T06:06:56.849Z,15.59
2017-09-14T06:07:56.788Z,15.73
2017-09-14T06:08:56.688Z,15.65
2017-09-14T06:09:56.708Z,15.72
2017-09-14T06:10:56.911Z,15.73
2017-09-14T06:11:56.425Z,15.62
2017-09-14T06:12:57.234Z,15.77
2017-09-14T06:13:56.919Z,15.73
2017-09-14T06:14:56.919Z,15.77
2017-09-14T06:15:56.824Z,15.72
2017-09-14T06:16:56.838Z,15.75
2017-09-14T06:17:57.188Z,15.75
2017-09-14T06:18:56.558Z,15.8
2017-09-14T06:19:56.902Z,15.75
2017-09-14T06:20:56.915Z,15.77
2017-09-14T06:21:56.939Z,15.68
2017-09-14T06:22:56.962Z,15.72
2017-09-14T06:23:56.984Z,15.88
2017-09-14T06:24:56.999Z,15.82
2017-09-14T06:25:56.695Z,15.8
2017-09-14T06:26:57.034Z,15.75
2017-09-14T06:27:56.920Z,15.8
2017-09-14T06:28:56.754Z,15.83
2017-09-14T06:29:57.217Z,15.82
2017-09-14T06:30:56.794Z,15.76
2017-09-14T06:31:57.133Z,15.79
2017-09-14T06:32:57.479Z,15.83
2017-09-14T06:33:57.493Z,15.79
2017-09-14T06:34:57.622Z,15.83
2017-09-14T06:35:57.532Z,15.84
2017-09-14T06:36:57.550Z,15.82
2017-09-14T06:37:57.252Z,15.94
2017-09-14T06:38:57.279Z,15.86
2017-09-14T06:39:57.614Z,15.88
2017-09-14T06:40:56.986Z,15.95
2017-09-14T06:41:57.099Z,15.92
2017-09-14T06:42:57.347Z,15.92
2017-09-14T06:43:57.044Z,15.91
2017-09-14T06:44:57.715Z,15.91
2017-09-14T06:45:57.727Z,15.92
2017-09-14T06:46:57.432Z,15.98
2017-09-14T06:47:57.765Z,15.94
2017-09-14T06:48:57.513Z,15.98
2017-09-14T06:49:57.489Z,15.91
2017-09-14T06:50:57.986Z,16.02
2017-09-14T06:51:57.297Z,16.01
2017-09-14T06:52:57.543Z,15.97
2017-09-14T06:53:57.565Z,16.04
2017-09-14T06:54:57.260Z,16
2017-09-14T06:55:57.599Z,15.95
2017-09-14T06:56:57.943Z,15.97
2017-09-14T06:57:57.639Z,15.95
2017-09-14T06:58:57.655Z,15.98
2017-09-14T06:59:57.679Z,15.97
2017-09-14T07:00:57.697Z,16
2017-09-14T07:01:57.716Z,16.08
2017-09-14T07:02:57.414Z,16.01
2017-09-14T07:03:58.079Z,16.05
2017-09-14T07:04:57.453Z,16.02
2017-09-14T07:05:58.117Z,16.05
2017-09-14T07:06:57.491Z,15.98
2017-09-14T07:07:57.513Z,15.98
2017-09-14T07:08:57.857Z,16.04
2017-09-14T07:09:58.196Z,16.05
2017-09-14T07:10:58.213Z,16.02
2017-09-14T07:11:58.232Z,16.05
2017-09-14T07:12:58.254Z,16.05
2017-09-14T07:13:58.269Z,16.09
2017-09-14T07:14:58.295Z,16.13
2017-09-14T07:15:58.309Z,16.09
2017-09-14T07:16:58.337Z,16.16
2017-09-14T07:17:58.027Z,16.15
2017-09-14T07:18:58.043Z,16.16
2017-09-14T07:19:58.401Z,16.16
2017-09-14T07:20:58.087Z,16.16
2017-09-14T07:21:58.103Z,16.13
2017-09-14T07:22:58.124Z,16.15
2017-09-14T07:23:58.464Z,16.16
2017-09-14T07:24:58.159Z,16.2
2017-09-14T07:25:58.502Z,16.2
2017-09-14T07:26:58.541Z,16.21
2017-09-14T07:27:58.544Z,16.21
2017-09-14T07:28:58.616Z,16.21
2017-09-14T07:29:58.583Z,16.23
2017-09-14T07:30:58.607Z,16.29
2017-09-14T07:31:58.624Z,16.24
2017-09-14T07:32:58.323Z,16.28
2017-09-14T07:33:58.338Z,16.17
2017-09-14T07:34:58.686Z,16.35
2017-09-14T07:35:58.379Z,16.41
2017-09-14T07:36:58.398Z,16.33
2017-09-14T07:37:58.096Z,16.41
2017-09-14T07:38:58.115Z,16.41
2017-09-14T07:39:58.785Z,16.38
2017-09-14T07:40:58.478Z,16.39
2017-09-14T07:41:58.820Z,16.41
2017-09-14T07:42:58.517Z,16.38
2017-09-14T07:43:58.857Z,16.43
2017-09-14T07:44:58.231Z,16.41
2017-09-14T07:45:58.898Z,16.39
2017-09-14T07:46:58.270Z,16.41
2017-09-14T07:47:58.937Z,16.36
2017-09-14T07:48:58.631Z,16.39
2017-09-14T07:49:58.975Z,16.33
2017-09-14T07:50:58.722Z,16.38
2017-09-14T07:51:59.017Z,16.33
2017-09-14T07:52:58.718Z,16.42
2017-09-14T07:53:59.059Z,16.32
2017-09-14T07:54:58.945Z,16.38
2017-09-14T07:55:59.098Z,16.39
2017-09-14T07:56:59.113Z,16.39
2017-09-14T07:57:58.812Z,16.46
2017-09-14T07:58:58.513Z,16.38
2017-09-14T07:59:58.654Z,16.41
2017-09-14T08:00:59.247Z,16.42
2017-09-14T08:01:59.249Z,16.36
2017-09-14T08:02:59.237Z,16.43
2017-09-14T08:03:59.053Z,16.36
2017-09-14T08:04:59.073Z,16.42
2017-09-14T08:05:58.742Z,16.42
2017-09-14T08:06:58.988Z,16.39
2017-09-14T08:07:59.332Z,16.51
2017-09-14T08:08:59.027Z,16.49
2017-09-14T08:09:59.047Z,16.49
2017-09-14T08:10:59.231Z,16.43
2017-09-14T08:11:59.228Z,16.54
2017-09-14T08:12:59.253Z,16.54
2017-09-14T08:13:59.360Z,16.51
2017-09-14T08:14:58.920Z,16.64
2017-09-14T08:15:58.842Z,16.56
2017-09-14T08:16:59.189Z,16.6
2017-09-14T08:17:59.209Z,16.61
2017-09-14T08:18:59.226Z,16.68
2017-09-14T08:19:59.251Z,16.64
2017-09-14T08:20:59.265Z,16.65
2017-09-14T08:21:59.707Z,16.66
2017-09-14T08:22:59.354Z,16.72
2017-09-14T08:23:59.327Z,16.75
2017-09-14T08:24:59.347Z,16.78
2017-09-14T08:25:59.368Z,16.81
2017-09-14T08:26:59.392Z,16.86
2017-09-14T08:27:59.402Z,16.84
2017-09-14T08:28:59.425Z,16.84
2017-09-14T08:29:59.120Z,16.86
2017-09-14T08:30:59.464Z,16.86
2017-09-14T08:31:59.813Z,16.78
2017-09-14T08:32:59.504Z,16.89
2017-09-14T08:33:59.520Z,16.89
2017-09-14T08:34:59.542Z,16.96
2017-09-14T08:35:59.564Z,16.94
2017-09-14T08:36:59.904Z,16.89
2017-09-14T08:37:59.925Z,16.96
2017-09-14T08:38:59.946Z,16.97
2017-09-14T08:39:59.319Z,16.91
2017-09-14T08:40:59.984Z,17.04
2017-09-14T08:41:59.360Z,16.97
2017-09-14T08:42:59.700Z,17.08
2017-09-14T08:43:59.720Z,16.91
2017-09-14T08:44:59.747Z,16.94
2017-09-14T08:45:59.437Z,17.06
2017-09-14T08:47:00.111Z,17.04
2017-09-14T08:47:59.810Z,17.06
2017-09-14T08:49:00.142Z,17.05
2017-09-14T08:49:59.843Z,17.02
2017-09-14T08:50:59.861Z,17.02
2017-09-14T08:51:59.888Z,17.01
2017-09-14T08:53:00.259Z,17.01
2017-09-14T08:54:00.467Z,17.02
2017-09-14T08:55:00.486Z,17.01
2017-09-14T08:56:00.285Z,16.9
2017-09-14T08:57:00.528Z,17.04
2017-09-14T08:58:00.001Z,17.15
2017-09-14T08:59:00.350Z,17.01
2017-09-14T09:00:00.463Z,16.96
2017-09-14T09:01:00.089Z,17.04
2017-09-14T09:02:00.080Z,17.04
2017-09-14T09:03:00.496Z,16.99
2017-09-14T09:04:00.133Z,17.04
2017-09-14T09:05:00.143Z,16.96
2017-09-14T09:06:00.492Z,17.02
2017-09-14T09:07:00.624Z,16.94
2017-09-14T09:08:00.658Z,17.05
2017-09-14T09:09:00.220Z,17.08
2017-09-14T09:10:00.241Z,17.05
2017-09-14T09:11:00.665Z,16.99
2017-09-14T09:12:00.106Z,17.06
2017-09-14T09:13:00.645Z,17.05
2017-09-14T09:14:00.642Z,17.05
2017-09-14T09:15:00.343Z,17.06
2017-09-14T09:16:00.761Z,17.09
2017-09-14T09:17:00.196Z,17.11
2017-09-14T09:18:00.498Z,17.04
2017-09-14T09:19:00.742Z,17.11
2017-09-14T09:20:00.123Z,17.11
2017-09-14T09:21:00.461Z,17.09
2017-09-14T09:22:00.481Z,17.19
2017-09-14T09:23:00.826Z,17.12
2017-09-14T09:24:00.851Z,17.14
2017-09-14T09:25:00.919Z,17.09
2017-09-14T09:26:00.241Z,17.15
2017-09-14T09:27:00.584Z,17.14
2017-09-14T09:28:00.928Z,17.14
2017-09-14T09:29:00.623Z,17.09
2017-09-14T09:30:00.974Z,17.19
2017-09-14T09:31:00.668Z,17.14
2017-09-14T09:32:00.360Z,17.16
2017-09-14T09:33:01.023Z,17.11
2017-09-14T09:34:01.048Z,17.14
2017-09-14T09:35:01.067Z,17.11
2017-09-14T09:36:01.089Z,17.12
2017-09-14T09:37:00.784Z,17.11
2017-09-14T09:38:00.478Z,17.16
2017-09-14T09:39:00.838Z,17.2
2017-09-14T09:40:01.184Z,17.16
2017-09-14T09:41:00.571Z,17.15
2017-09-14T09:42:00.940Z,17.2
2017-09-14T09:43:01.269Z,17.19
2017-09-14T09:44:01.282Z,17.2
2017-09-14T09:45:01.266Z,17.2
2017-09-14T09:46:00.976Z,17.2
2017-09-14T09:47:00.669Z,17.16
2017-09-14T09:48:01.435Z,17.12
2017-09-14T09:49:01.432Z,17.16
2017-09-14T09:50:01.047Z,17.23
2017-09-14T09:51:01.065Z,17.16
2017-09-14T09:52:00.853Z,17.15
2017-09-14T09:53:01.428Z,17.12
2017-09-14T09:54:01.206Z,17.16
2017-09-14T09:55:01.481Z,17.19
2017-09-14T09:56:01.496Z,17.16
2017-09-14T09:57:00.982Z,17.06
2017-09-14T09:58:01.544Z,17.19
2017-09-14T09:59:01.549Z,17.15
2017-09-14T10:00:01.609Z,17.05
2017-09-14T10:01:01.622Z,17.14
2017-09-14T10:02:01.613Z,17.06
2017-09-14T10:03:01.636Z,17.09
2017-09-14T10:04:01.327Z,17.15
2017-09-14T10:05:01.354Z,17.06
2017-09-14T10:06:01.373Z,17.09
2017-09-14T10:07:01.070Z,17.12
2017-09-14T10:08:01.420Z,17.09
2017-09-14T10:09:01.776Z,17.14
2017-09-14T10:10:01.128Z,17.05
2017-09-14T10:11:01.150Z,17.04
2017-09-14T10:12:01.494Z,17.08
2017-09-14T10:13:01.508Z,17.05
2017-09-14T10:14:01.535Z,17.04
2017-09-14T10:15:01.884Z,17.11
2017-09-14T10:16:01.895Z,17.04
2017-09-14T10:17:01.921Z,17.02
2017-09-14T10:18:01.617Z,17.04
2017-09-14T10:19:01.308Z,17.02
2017-09-14T10:20:01.980Z,17.04
2017-09-14T10:21:01.996Z,16.96
2017-09-14T10:22:01.698Z,17.01
2017-09-14T10:23:01.720Z,17.11
2017-09-14T10:24:01.731Z,17.05
2017-09-14T10:25:01.430Z,17.02
2017-09-14T10:26:01.770Z,17.01
2017-09-14T10:27:01.795Z,17.02
2017-09-14T10:28:01.813Z,17.05
2017-09-14T10:29:01.835Z,17.15
2017-09-14T10:30:01.856Z,17.12
2017-09-14T10:31:01.552Z,17.11
2017-09-14T10:32:02.217Z,17.08
2017-09-14T10:33:01.913Z,17.11
2017-09-14T10:34:01.611Z,17.14
2017-09-14T10:35:02.282Z,17.06
2017-09-14T10:36:01.980Z,17.12
2017-09-14T10:37:02.000Z,17.14
2017-09-14T10:38:02.013Z,17.08
2017-09-14T10:39:01.713Z,17.05
2017-09-14T10:40:02.381Z,17.02
2017-09-14T10:41:02.436Z,16.97
2017-09-14T10:42:02.724Z,17.04
2017-09-14T10:43:02.442Z,17.04
2017-09-14T10:44:02.574Z,17.04
2017-09-14T10:45:02.159Z,16.93
2017-09-14T10:46:01.855Z,16.99
2017-09-14T10:47:02.209Z,16.93
2017-09-14T10:48:02.540Z,17.09
2017-09-14T10:49:02.238Z,17.04
2017-09-14T10:50:02.262Z,16.99
2017-09-14T10:51:02.391Z,17.06
2017-09-14T10:52:02.389Z,16.97
2017-09-14T10:53:02.647Z,16.96
2017-09-14T10:54:02.680Z,16.94
2017-09-14T10:55:02.687Z,16.97
2017-09-14T10:56:02.385Z,16.99
2017-09-14T10:57:02.402Z,16.99
2017-09-14T10:58:02.423Z,16.94
2017-09-14T10:59:02.767Z,16.9
2017-09-14T11:00:02.797Z,16.91
2017-09-14T11:01:02.481Z,16.91
2017-09-14T11:02:02.960Z,16.93
2017-09-14T11:03:02.847Z,16.89
2017-09-14T11:04:02.881Z,16.81
2017-09-14T11:05:02.563Z,16.79
2017-09-14T11:06:02.912Z,16.86
2017-09-14T11:07:02.604Z,16.86
2017-09-14T11:08:02.670Z,16.83
2017-09-14T11:09:02.642Z,16.78
2017-09-14T11:10:02.995Z,16.81
2017-09-14T11:11:02.686Z,16.76
2017-09-14T11:12:02.844Z,16.74
2017-09-14T11:13:02.518Z,16.75
2017-09-14T11:14:02.841Z,16.76
2017-09-14T11:15:02.682Z,16.72
2017-09-14T11:16:02.887Z,16.75
2017-09-14T11:17:02.576Z,16.69
2017-09-14T11:18:02.847Z,16.75
2017-09-14T11:19:02.733Z,16.72
2017-09-14T11:20:02.866Z,16.66
2017-09-14T11:21:02.563Z,16.64
2017-09-14T11:22:02.922Z,16.71
2017-09-14T11:23:03.354Z,16.66
2017-09-14T11:24:02.959Z,16.64
2017-09-14T11:25:02.846Z,16.65
2017-09-14T11:26:03.328Z,16.65
2017-09-14T11:27:03.097Z,16.64
2017-09-14T11:28:03.028Z,16.68
2017-09-14T11:29:03.051Z,16.65
2017-09-14T11:30:03.392Z,16.64
2017-09-14T11:31:02.771Z,16.66
2017-09-14T11:32:03.438Z,16.64
2017-09-14T11:33:02.806Z,16.61
2017-09-14T11:34:03.180Z,16.61
2017-09-14T11:35:03.166Z,16.54
2017-09-14T11:36:03.184Z,16.51
2017-09-14T11:37:03.209Z,16.51
2017-09-14T11:38:02.927Z,16.54
2017-09-14T11:39:02.925Z,16.54
2017-09-14T11:40:03.279Z,16.51
2017-09-14T11:41:03.290Z,16.5
2017-09-14T11:42:03.308Z,16.5
2017-09-14T11:43:03.651Z,16.56
2017-09-14T11:44:03.049Z,16.57
2017-09-14T11:45:03.369Z,16.61
2017-09-14T11:46:03.713Z,16.68
2017-09-14T11:47:03.414Z,16.75
2017-09-14T11:48:03.118Z,16.74
2017-09-14T11:49:03.446Z,16.75
2017-09-14T11:50:03.472Z,16.78
2017-09-14T11:51:03.525Z,16.78
2017-09-14T11:52:03.530Z,16.81
2017-09-14T11:53:03.851Z,16.81
2017-09-14T11:54:03.566Z,16.81
2017-09-14T11:55:03.893Z,16.81
2017-09-14T11:56:03.591Z,16.81
2017-09-14T11:57:03.943Z,16.78
2017-09-14T11:58:03.637Z,16.78
2017-09-14T11:59:03.330Z,16.79
2017-09-14T12:00:03.372Z,16.81
2017-09-14T12:01:03.366Z,16.91
2017-09-14T12:02:03.709Z,16.86
2017-09-14T12:03:03.406Z,16.79
2017-09-14T12:04:03.750Z,16.87
2017-09-14T12:05:03.771Z,16.93
2017-09-14T12:06:03.811Z,16.87
2017-09-14T12:07:04.135Z,16.9
2017-09-14T12:08:03.830Z,16.94
2017-09-14T12:09:03.850Z,16.89
2017-09-14T12:10:03.869Z,16.83
2017-09-14T12:11:03.569Z,16.81
2017-09-14T12:12:03.592Z,16.81
2017-09-14T12:13:03.608Z,16.78
2017-09-14T12:14:03.655Z,16.81
2017-09-14T12:15:03.648Z,16.86
2017-09-14T12:16:03.990Z,16.81
2017-09-14T12:17:04.437Z,16.89
2017-09-14T12:18:04.362Z,16.84
2017-09-14T12:19:04.059Z,16.76
2017-09-14T12:20:04.070Z,16.74
2017-09-14T12:21:04.090Z,16.75
2017-09-14T12:22:04.449Z,16.76
2017-09-14T12:23:04.462Z,16.75
2017-09-14T12:24:03.834Z,16.64
2017-09-14T12:25:03.851Z,16.6
2017-09-14T12:26:04.533Z,16.69
2017-09-14T12:27:03.890Z,16.6
2017-09-14T12:28:04.558Z,16.66
2017-09-14T12:29:04.254Z,16.66
2017-09-14T12:30:04.280Z,16.66
2017-09-14T12:31:04.615Z,16.66
2017-09-14T12:32:04.317Z,16.66
2017-09-14T12:33:04.660Z,16.68
2017-09-14T12:34:04.353Z,16.58
2017-09-14T12:35:04.377Z,16.61
2017-09-14T12:36:04.391Z,16.64
2017-09-14T12:37:04.741Z,16.64
2017-09-14T12:38:04.440Z,16.65
2017-09-14T12:39:04.454Z,16.61
2017-09-14T12:40:04.480Z,16.65
2017-09-14T12:41:04.492Z,16.6
2017-09-14T12:42:04.520Z,16.71
2017-09-14T12:43:04.539Z,16.65
2017-09-14T12:44:04.884Z,16.58
2017-09-14T12:45:04.604Z,16.66
2017-09-14T12:46:04.721Z,16.66
2017-09-14T12:47:04.613Z,16.64
2017-09-14T12:48:04.956Z,16.58
2017-09-14T12:49:04.988Z,16.65
2017-09-14T12:50:05.014Z,16.6
2017-09-14T12:51:05.218Z,16.58
2017-09-14T12:52:05.238Z,16.54
2017-09-14T12:53:05.268Z,16.56
2017-09-14T12:54:04.753Z,16.57
2017-09-14T12:55:04.456Z,16.5
2017-09-14T12:56:04.473Z,16.54